Pray, MT

6:04 PM MDT on May 28, 2015 (GMT -0600)
Paradise Valley | | Change Station
CLOSE
Current Station
Personal Weather Station
Location: Emigrant, MT
Elevation: 4833 ft
Nearby Weather Stations

Elev 4833 ft 45.42 °N, 110.66 °W | Updated 10 minutes ago

Rain
Rain
51.4 °F
Feels Like 51.4 °F
N
2.2
Wind Variable Wind from NW

Today
High -- | Low -- °F
--% Chance of Precip.
Yesterday
High -- | Low -- °F
Precip. -- in
5:40 AM 9:00 PM
Waxing Gibbous, 79% visible
Pressure 30.14 in
Visibility 5.0 miles
Clouds Overcast 5500 ft
Dew Point 46 °F
Humidity 83%
Rainfall 0.27 in
Snow Depth Not available.
UV 1 out of 12
Pollen 2.70 out of 12
Air Quality Not available.
Flu Activity Sporadic
METAR KLVM 282353Z AUTO 22013KT 5SM -RA BR OVC055 11/09 A3018 RMK AO2 WSHFT 2248 SLP205 P0011 60041 T01110094 10167 20100 53010

More Conditions Fewer Conditions

Pressure 30.14 in
Visibility 5.0 miles
Clouds Overcast 5500 ft
Dew Point 46 °F
Humidity 83%
Rainfall 0.27 in
Snow Depth Not available.
UV 1 out of 12
Pollen 2.70 out of 12
Air Quality Not available.
Flu Activity Sporadic
METAR KLVM 282353Z AUTO 22013KT 5SM -RA BR OVC055 11/09 A3018 RMK AO2 WSHFT 2248 SLP205 P0011 60041 T01110094 10167 20100 53010

More Conditions Fewer Conditions

10-Day Weather Forecast

Almanac

Astronomy

May. 28, 2015 Rise Set
Actual Time
Civil Twilight
Nautical Twilight
Astronomical Twilight
Moon
Length of Visible Light
Length of Day
Tomorrow will be .
, % of the Moon is Illuminated

Today's Extremes

State Highs State Lows

Community

WunderPhotos

Upload Photos

1,825,096 photos uploaded!

WunderBlogs® & News

Nearby

Air Quality

  Air Quality AQ Index Pollutant
Not available.

Snow Depth

Station Depth Elevation

Earthquake Activity

City Distance Mag. Time & Date
Minimum magnitude displayed is 2.5.

Coastal Water Temperatures

Place Temperature

Stations

Nearby Weather Stations

Station Location Temp. Windchill Dew Point Humidity Wind Precip. Elev Updated Type